Magnolia — WDB7135 — position and weather

sailwx.info

Track history (hours):
 
Tides and Currents Weather Stations Pressure Air Temp Water Temp Dewpoint Dewpoint Depression Visibility Wind Speed Wind Dir Waves Ship Positions

Magnolia

Owner: Magnolia Marine Transport Co, Vicksburg, MS. More information available from US FCC via Universal Licensing System and Coast Guard Vessel Documentation Center.

Last reported at 2017-Aug-13 20:53 UTC. Time now 2017-Aug-20 15:27 UTC.
Position N 32°38' W 091°09'.

Length 215 m.

MMSI: 366936960.

Date/timePositionNaut miles runAvg speedWind from/ knotsBaromVisibWave heightAir tempDewpointWater temp
2017-Aug-13 20:53N 32°38' W 091°09'2 5.7
2017-Aug-13 20:31N 32°36' W 091°08'3 5.4
2017-Aug-13 20:01N 32°34' W 091°06'4 5.2
2017-Aug-13 19:20N 32°30' W 091°07'2 5.8
2017-Aug-13 19:01N 32°28' W 091°06'3 6.0
2017-Aug-13 18:31N 32°26' W 091°04'3 6.0
2017-Aug-13 18:01N 32°25' W 091°00'2 4.8
2017-Aug-13 17:31N 32°23' W 090°60'2 4.7
2017-Aug-13 17:01N 32°21' W 090°58'3 6.2
2017-Aug-13 16:31N 32°21' W 090°55'3 5.4
2017-Aug-13 16:01N 32°18' W 090°55'0 0.0
2017-Aug-13 15:30N 32°18' W 090°55'0 0.0
2017-Aug-13 15:01N 32°18' W 090°55'0 0.0
2017-Aug-13 14:31N 32°18' W 090°55'0 0.0
2017-Aug-13 14:01N 32°18' W 090°55'0 0.0
2017-Aug-13 13:31N 32°18' W 090°55'0 0.1
2017-Aug-13 13:01N 32°18' W 090°55'3 5.2
2017-Aug-13 12:31N 32°16' W 090°57'3 5.4
2017-Aug-13 12:01N 32°14' W 090°59'2 3.2
2017-Aug-13 11:31N 32°12' W 090°59'3 5.7
2017-Aug-13 11:01N 32°10' W 091°00'3 5.1
2017-Aug-13 10:30N 32°07' W 091°01'3 5.5
2017-Aug-13 10:01N 32°08' W 091°05'2 3.9
2017-Aug-13 09:31N 32°07' W 091°06'4 5.4
2017-Aug-13 08:42N 32°03' W 091°03'1 6.1
2017-Aug-13 08:31N 32°02' W 091°04'3 6.4
2017-Aug-13 08:01N 31°60' W 091°06'4 6.0
2017-Aug-13 07:20N 31°59' W 091°11'9 4.5
2017-Aug-13 05:20N 31°51' W 091°17'125 2.5
2017-Aug-11 02:58N 29°51' W 091°54'2 5.5
2017-Aug-11 02:31N 29°50' W 091°57'3 5.1
2017-Aug-11 02:00N 29°50' W 091°60'3 5.4
2017-Aug-11 01:31N 29°49' W 092°03'3 5.3
2017-Aug-11 01:01N 29°48' W 092°06'3 5.4
2017-Aug-11 00:31N 29°47' W 092°08'3 5.5
2017-Aug-11 00:01N 29°47' W 092°12'2 3.7
2017-Aug-10 23:31N 29°48' W 092°14'2 3.4
2017-Aug-10 23:01N 29°48' W 092°15'2 4.2
2017-Aug-10 22:30N 29°49' W 092°18'2 4.0
2017-Aug-10 21:57N 29°51' W 092°20'1 2.6
2017-Aug-10 21:30N 29°51' W 092°21'40 3.9
2017-Aug-10 11:21N 29°56' W 093°07'2 4.8
2017-Aug-10 11:01N 29°56' W 093°09'2 4.5
2017-Aug-10 10:31N 29°57' W 093°11'2 4.5
2017-Aug-10 10:01N 29°59' W 093°12'2 4.0
2017-Aug-10 09:31N 30°01' W 093°14'2 3.7
2017-Aug-10 09:01N 30°02' W 093°15'1 2.8
2017-Aug-10 08:31N 30°03' W 093°16'2 4.2
2017-Aug-10 08:01N 30°05' W 093°17'1 2.0
2017-Aug-10 07:31N 30°06' W 093°18'1 1.6
2017-Aug-10 07:01N 30°06' W 093°19'0 0.3
2017-Aug-10 06:30N 30°06' W 093°19'2 3.7
2017-Aug-10 06:01N 30°07' W 093°20'2 5.0
2017-Aug-10 05:31N 30°10' W 093°19'2 3.2
2017-Aug-10 05:01N 30°11' W 093°18'3 5.3
2017-Aug-10 04:31N 30°13' W 093°16'1 2.2
2017-Aug-10 04:00N 30°14' W 093°15'0 0.1
2017-Aug-10 03:31N 30°14' W 093°15'0 0.1
2017-Aug-10 03:01N 30°14' W 093°15'0 0.0
2017-Aug-10 02:31N 30°14' W 093°15'0 0.2
2017-Aug-10 02:00N 30°14' W 093°15'0 0.0
2017-Aug-10 01:30N 30°14' W 093°15'0 0.0
2017-Aug-10 01:01N 30°14' W 093°15'0 0.0
2017-Aug-10 00:31N 30°14' W 093°15'0 0.0
2017-Aug-10 00:01N 30°14' W 093°15'0 0.0
2017-Aug-09 23:31N 30°14' W 093°15'0 0.0
2017-Aug-09 23:01N 30°14' W 093°15'0 0.0
2017-Aug-09 22:31N 30°14' W 093°15'0 0.0
2017-Aug-09 22:00N 30°14' W 093°15'0 0.0
2017-Aug-09 21:31N 30°14' W 093°15'0 0.0
2017-Aug-09 21:00N 30°14' W 093°15'0 0.0
2017-Aug-09 20:31N 30°14' W 093°15'0 0.0
2017-Aug-09 20:01N 30°14' W 093°15'0 0.0
2017-Aug-09 19:31N 30°14' W 093°15'0 0.0
2017-Aug-09 19:01N 30°14' W 093°15'0 0.0
2017-Aug-09 18:31N 30°14' W 093°15'0 0.0
2017-Aug-09 18:01N 30°14' W 093°15'0 0.0
2017-Aug-09 17:31N 30°14' W 093°15'0 0.0
2017-Aug-09 17:00N 30°14' W 093°15'0 0.0
2017-Aug-09 16:31N 30°14' W 093°15'0 0.0
2017-Aug-09 16:01N 30°14' W 093°15'0 0.0
2017-Aug-09 15:31N 30°14' W 093°15'0 0.0
2017-Aug-09 15:00N 30°14' W 093°15'0 0.0
2017-Aug-09 14:31N 30°14' W 093°15'0 0.0
2017-Aug-09 14:01N 30°14' W 093°15'0 0.0
2017-Aug-09 13:31N 30°14' W 093°15'0 0.0
2017-Aug-09 13:00N 30°14' W 093°15'0 0.0
2017-Aug-09 12:30N 30°14' W 093°15'0 0.0
2017-Aug-09 12:01N 30°14' W 093°15'0 0.0
2017-Aug-09 11:29N 30°14' W 093°15'0 0.0
2017-Aug-09 11:01N 30°14' W 093°15'0 0.1
2017-Aug-09 10:31N 30°14' W 093°15'0 0.3
2017-Aug-09 10:01N 30°14' W 093°15'0 0.1
2017-Aug-09 09:31N 30°14' W 093°15'0 0.4
2017-Aug-09 09:00N 30°14' W 093°15'0 0.0
2017-Aug-09 08:29N 30°14' W 093°15'0 0.0
2017-Aug-09 08:01N 30°14' W 093°15'0 0.1
2017-Aug-09 07:30N 30°14' W 093°15'0 0.0
2017-Aug-09 07:01N 30°14' W 093°15'0 0.0
2017-Aug-09 06:30N 30°14' W 093°15'0 0.0
2017-Aug-09 06:01N 30°14' W 093°15'0 0.0
2017-Aug-09 05:31N 30°14' W 093°15'0 0.0
2017-Aug-09 05:01N 30°14' W 093°15'0 0.0
2017-Aug-09 04:30N 30°14' W 093°15'0 0.0
2017-Aug-09 04:01N 30°14' W 093°15'0 0.0
2017-Aug-09 03:31N 30°14' W 093°15'0 0.0
2017-Aug-09 03:00N 30°14' W 093°15'0 0.0
2017-Aug-09 02:31N 30°14' W 093°15'0 0.0
2017-Aug-09 02:01N 30°14' W 093°15'0 0.0
2017-Aug-09 01:31N 30°14' W 093°15'0 0.0
2017-Aug-09 01:00N 30°14' W 093°15'0 0.0
2017-Aug-09 00:31N 30°14' W 093°15'0 0.0
2017-Aug-09 00:01N 30°14' W 093°15'0 0.0
2017-Aug-08 23:31N 30°14' W 093°15'0 0.0
2017-Aug-08 23:00N 30°14' W 093°15'0 0.0
2017-Aug-08 22:31N 30°14' W 093°15'0 0.0
2017-Aug-08 22:01N 30°14' W 093°15'0 0.0
2017-Aug-08 21:31N 30°14' W 093°15'0 0.0
2017-Aug-08 21:01N 30°14' W 093°15'0 0.0
2017-Aug-08 20:30N 30°14' W 093°15'0 0.0
2017-Aug-08 20:01N 30°14' W 093°15'0 0.0
2017-Aug-08 19:31N 30°14' W 093°15'0 0.2
2017-Aug-08 19:01N 30°14' W 093°15'0 0.0
2017-Aug-08 18:30N 30°14' W 093°15'0 0.0
2017-Aug-08 18:00N 30°14' W 093°15'0 0.0
2017-Aug-08 17:30N 30°14' W 093°15'0 0.0
2017-Aug-08 17:01N 30°14' W 093°15'0 0.0
2017-Aug-08 16:30N 30°14' W 093°15'0 0.0
2017-Aug-08 16:01N 30°14' W 093°15'0 0.0
2017-Aug-08 15:31N 30°14' W 093°15'0 0.0
2017-Aug-08 15:00N 30°14' W 093°15'0 0.0
2017-Aug-08 14:31N 30°14' W 093°15'0 0.0
2017-Aug-08 14:01N 30°14' W 093°15'0 0.0
2017-Aug-08 13:31N 30°14' W 093°15'0 0.0
2017-Aug-08 13:01N 30°14' W 093°15'0 0.0
2017-Aug-08 12:30N 30°14' W 093°15'0 0.0
2017-Aug-08 12:01N 30°14' W 093°15'0 0.0
2017-Aug-08 11:31N 30°14' W 093°15'0 0.0
2017-Aug-08 11:01N 30°14' W 093°15'0 0.0
2017-Aug-08 10:31N 30°14' W 093°15'0 0.0
2017-Aug-08 10:01N 30°14' W 093°15'0 0.0
2017-Aug-08 09:30N 30°14' W 093°15'0 0.0
2017-Aug-08 09:01N 30°14' W 093°15'0 0.0
2017-Aug-08 08:31N 30°14' W 093°15'0 0.0
2017-Aug-08 08:01N 30°14' W 093°15'0 0.0
2017-Aug-08 07:31N 30°14' W 093°15'0 0.0
2017-Aug-08 07:01N 30°14' W 093°15'0 0.0
2017-Aug-08 06:31N 30°14' W 093°15'0 0.0
2017-Aug-08 06:00N 30°14' W 093°15'0 0.0
2017-Aug-08 05:30N 30°14' W 093°15'0 0.0
2017-Aug-08 05:00N 30°14' W 093°15'0 0.0
2017-Aug-08 04:31N 30°14' W 093°15'0 0.0
2017-Aug-08 04:01N 30°14' W 093°15'0 0.0
2017-Aug-08 03:31N 30°14' W 093°15'0 0.0
2017-Aug-08 03:01N 30°14' W 093°15'0 0.0
2017-Aug-08 02:31N 30°14' W 093°15'0 0.0
2017-Aug-08 02:01N 30°14' W 093°15'0 0.0
2017-Aug-08 01:30N 30°14' W 093°15'0 0.0
2017-Aug-08 01:01N 30°14' W 093°15'0 0.0
2017-Aug-08 00:31N 30°14' W 093°15'0 0.0
2017-Aug-08 00:01N 30°14' W 093°15'0 0.0
2017-Aug-07 23:31N 30°14' W 093°15'0 0.0
2017-Aug-07 23:00N 30°14' W 093°15'0 0.0
2017-Aug-07 22:31N 30°14' W 093°15'0 0.0
2017-Aug-07 22:00N 30°14' W 093°15'0 0.0
2017-Aug-07 21:30N 30°14' W 093°15'0 0.0
2017-Aug-07 21:00N 30°14' W 093°15'0 0.0
2017-Aug-07 20:31N 30°14' W 093°15'0 0.0
2017-Aug-07 20:01N 30°14' W 093°15'0 0.0
2017-Aug-07 19:31N 30°14' W 093°15'0 0.0
2017-Aug-07 19:01N 30°14' W 093°15'0 0.0
2017-Aug-07 18:30N 30°14' W 093°15'0 0.0
2017-Aug-07 18:01N 30°14' W 093°15'0 0.0
2017-Aug-07 17:30N 30°14' W 093°15'0 0.4
2017-Aug-07 17:00N 30°14' W 093°16'1 1.8
2017-Aug-07 16:30N 30°13' W 093°16'1 1.4
2017-Aug-07 16:01N 30°13' W 093°16'3 6.0
2017-Aug-07 15:31N 30°11' W 093°19'3 6.4
2017-Aug-07 15:01N 30°08' W 093°20'3 5.9
2017-Aug-07 14:31N 30°05' W 093°20'1 2.0
2017-Aug-07 14:01N 30°04' W 093°21'0 0.0
2017-Aug-07 13:31N 30°04' W 093°21'0 0.1
2017-Aug-07 13:01N 30°04' W 093°21'0 0.0
2017-Aug-07 12:31N 30°04' W 093°21'0 0.0
2017-Aug-07 12:01N 30°04' W 093°21'0 0.0
2017-Aug-07 11:31N 30°04' W 093°21'0 0.0
2017-Aug-07 11:01N 30°04' W 093°21'0 0.0
2017-Aug-07 10:31N 30°04' W 093°21'0 0.0
2017-Aug-07 10:00N 30°04' W 093°21'0 0.0
2017-Aug-07 09:31N 30°04' W 093°21'0 0.0
2017-Aug-07 09:01N 30°04' W 093°21'0 0.0
2017-Aug-07 08:31N 30°04' W 093°21'0 0.0
2017-Aug-07 08:01N 30°04' W 093°21'0 0.0
2017-Aug-07 07:31N 30°04' W 093°21'0 0.0
2017-Aug-07 07:00N 30°04' W 093°21'0 0.0
2017-Aug-07 06:30N 30°04' W 093°21'0 0.0
2017-Aug-07 06:01N 30°04' W 093°21'0 0.0
2017-Aug-07 05:31N 30°04' W 093°21'0 0.0
2017-Aug-07 05:01N 30°04' W 093°21'0 0.0
2017-Aug-07 04:30N 30°04' W 093°21'0 0.0
2017-Aug-07 04:01N 30°04' W 093°21'0 0.0
2017-Aug-07 03:31N 30°04' W 093°21'0 0.0
2017-Aug-07 03:01N 30°04' W 093°21'0 0.0
2017-Aug-07 02:31N 30°04' W 093°21'0 0.0
2017-Aug-07 02:00N 30°04' W 093°21'0 0.0
2017-Aug-07 01:31N 30°04' W 093°21'0 0.0
2017-Aug-07 01:00N 30°04' W 093°21'0 0.0
2017-Aug-07 00:31N 30°04' W 093°21'0 0.0
2017-Aug-07 00:01N 30°04' W 093°21'0 0.0
2017-Aug-06 23:31N 30°04' W 093°21'0 0.0
2017-Aug-06 23:01N 30°04' W 093°21'0 0.0
2017-Aug-06 22:31N 30°04' W 093°21'0 0.0
2017-Aug-06 22:01N 30°04' W 093°21'0 0.0
2017-Aug-06 21:31N 30°04' W 093°21'0 0.0
2017-Aug-06 21:01N 30°04' W 093°21'0 0.0
2017-Aug-06 20:31N 30°04' W 093°21'0 0.0
2017-Aug-06 20:01N 30°04' W 093°21'0 0.0
2017-Aug-06 19:30N 30°04' W 093°21'0 0.0
2017-Aug-06 19:01N 30°04' W 093°21'0 0.0
2017-Aug-06 18:31N 30°04' W 093°21'0 0.0
2017-Aug-06 18:01N 30°04' W 093°21'0 0.0
2017-Aug-06 17:30N 30°04' W 093°21'0 0.0
2017-Aug-06 17:00N 30°04' W 093°21'0 0.0
2017-Aug-06 16:31N 30°04' W 093°21'0 0.0
2017-Aug-06 16:01N 30°04' W 093°21'0 0.0
2017-Aug-06 15:31N 30°04' W 093°21'0 0.0
2017-Aug-06 15:01N 30°04' W 093°21'0 0.0
2017-Aug-06 14:31N 30°04' W 093°21'0 0.0
2017-Aug-06 14:01N 30°04' W 093°21'0 0.0
2017-Aug-06 13:31N 30°04' W 093°21'0 0.0
2017-Aug-06 13:01N 30°04' W 093°21'0 0.0
2017-Aug-06 12:31N 30°04' W 093°21'0 0.0
2017-Aug-06 12:01N 30°04' W 093°21'0 0.0
2017-Aug-06 11:31N 30°04' W 093°21'0 0.0
2017-Aug-06 11:01N 30°04' W 093°21'0 0.0
2017-Aug-06 10:31N 30°04' W 093°21'0 0.0
2017-Aug-06 10:01N 30°04' W 093°21'0 0.0
2017-Aug-06 09:31N 30°04' W 093°21'0 0.0
2017-Aug-06 09:01N 30°04' W 093°21'0 0.0
2017-Aug-06 08:31N 30°04' W 093°21'0 0.0
2017-Aug-06 08:01N 30°04' W 093°21'0 0.0
2017-Aug-06 07:31N 30°04' W 093°21'0 0.0
2017-Aug-06 07:01N 30°04' W 093°21'0 0.0
2017-Aug-06 06:31N 30°04' W 093°21'0 0.0
2017-Aug-06 06:00N 30°04' W 093°21'0 0.1
2017-Aug-06 05:31N 30°04' W 093°21'0 0.0
2017-Aug-06 05:01N 30°04' W 093°21'0 0.0
2017-Aug-06 04:31N 30°04' W 093°21'0 0.0
2017-Aug-06 04:01N 30°04' W 093°21'0 0.0
2017-Aug-06 03:31N 30°04' W 093°21'0 0.0
2017-Aug-06 03:01N 30°04' W 093°21'0 0.0
2017-Aug-06 02:31N 30°04' W 093°21'0 0.0
2017-Aug-06 02:01N 30°04' W 093°21'0 0.0
2017-Aug-06 01:31N 30°04' W 093°21'0 0.0
2017-Aug-06 01:01N 30°04' W 093°21'0 0.0
2017-Aug-06 00:30N 30°04' W 093°21'0 0.0
2017-Aug-06 00:01N 30°04' W 093°21'0 0.0
2017-Aug-05 23:30N 30°04' W 093°21'0 0.0
2017-Aug-05 23:00N 30°04' W 093°21'0 0.0
2017-Aug-05 22:31N 30°04' W 093°21'0 0.0
2017-Aug-05 22:00N 30°04' W 093°21'0 0.0
2017-Aug-05 21:31N 30°04' W 093°21'0 0.0
2017-Aug-05 21:01N 30°04' W 093°21'0 0.0
2017-Aug-05 20:31N 30°04' W 093°21'0 0.0
2017-Aug-05 20:00N 30°04' W 093°21'0 0.0
2017-Aug-05 19:30N 30°04' W 093°21'0 0.0
2017-Aug-05 19:01N 30°04' W 093°21'0 0.0
2017-Aug-05 18:31N 30°04' W 093°21'0 0.0
2017-Aug-05 18:01N 30°04' W 093°21'0 0.0
2017-Aug-05 17:30N 30°04' W 093°21'0 0.0
2017-Aug-05 17:01N 30°04' W 093°21'0 0.0
2017-Aug-05 16:31N 30°04' W 093°21'0 0.0
2017-Aug-05 16:01N 30°04' W 093°21'0 0.0
2017-Aug-05 15:31N 30°04' W 093°21'0 0.0
2017-Aug-05 15:01N 30°04' W 093°21'0 0.0
2017-Aug-05 14:31N 30°04' W 093°21'0 0.0
2017-Aug-05 14:01N 30°04' W 093°21'0 0.0
2017-Aug-05 13:31N 30°04' W 093°21'0 0.0
2017-Aug-05 13:00N 30°04' W 093°21'0 0.0
2017-Aug-05 12:31N 30°04' W 093°21'0 0.0
2017-Aug-05 12:01N 30°04' W 093°21'0 0.0
2017-Aug-05 11:31N 30°04' W 093°21'0 0.0
2017-Aug-05 11:01N 30°04' W 093°21'0 0.0
2017-Aug-05 10:31N 30°04' W 093°21'0 0.0
2017-Aug-05 10:01N 30°04' W 093°21'0 0.0
2017-Aug-05 09:31N 30°04' W 093°21'0 0.0
2017-Aug-05 09:00N 30°04' W 093°21'0 0.0
2017-Aug-05 08:30N 30°04' W 093°21'0 0.0
2017-Aug-05 08:00N 30°04' W 093°21'0 0.0
2017-Aug-05 07:30N 30°04' W 093°21'0 0.0
2017-Aug-05 07:01N 30°04' W 093°21'0 0.0
2017-Aug-05 06:30N 30°04' W 093°21'0 0.0
2017-Aug-05 06:00N 30°04' W 093°21'0 0.0
2017-Aug-05 05:30N 30°04' W 093°21'0 0.0
2017-Aug-05 05:01N 30°04' W 093°21'0 0.0
2017-Aug-05 04:31N 30°04' W 093°21'0 0.0
2017-Aug-05 04:00N 30°04' W 093°21'0 0.0
2017-Aug-05 03:30N 30°04' W 093°21'0 0.0
2017-Aug-05 03:01N 30°04' W 093°21'0 0.0
2017-Aug-05 02:31N 30°04' W 093°21'0 0.0
2017-Aug-05 02:00N 30°04' W 093°21'0 0.0
2017-Aug-05 01:30N 30°04' W 093°21'0 0.0
2017-Aug-05 01:00N 30°04' W 093°21'0 0.0
2017-Aug-05 00:30N 30°04' W 093°21'0 0.0
2017-Aug-05 00:01N 30°04' W 093°21'0 0.0
2017-Aug-04 23:30N 30°04' W 093°21'0 0.0
2017-Aug-04 23:01N 30°04' W 093°21'0 0.0
2017-Aug-04 22:31N 30°04' W 093°21'0 0.0
2017-Aug-04 22:00N 30°04' W 093°21'0 0.0
2017-Aug-04 21:30N 30°04' W 093°21'0 0.0
2017-Aug-04 21:01N 30°04' W 093°21'0 0.0
2017-Aug-04 20:30N 30°04' W 093°21'0 0.0
2017-Aug-04 20:00N 30°04' W 093°21'0 0.0
2017-Aug-04 19:31N 30°04' W 093°21'0 0.0
2017-Aug-04 19:01N 30°04' W 093°21'0 0.0
2017-Aug-04 18:30N 30°04' W 093°21'0 0.0
2017-Aug-04 18:00N 30°04' W 093°21'0 0.0
2017-Aug-04 17:31N 30°04' W 093°21'0 0.0
2017-Aug-04 17:00N 30°04' W 093°21'0 0.0
2017-Aug-04 16:30N 30°04' W 093°21'0 0.0
2017-Aug-04 16:01N 30°04' W 093°21'0 0.0
2017-Aug-04 15:30N 30°04' W 093°21'0 0.0
2017-Aug-04 15:01N 30°04' W 093°21'0 0.0
2017-Aug-04 14:00N 30°04' W 093°21'0 0.0
2017-Aug-04 13:31N 30°04' W 093°21'0 0.0
2017-Aug-04 13:00N 30°04' W 093°21'0 0.0
2017-Aug-04 12:30N 30°04' W 093°21'0 0.0
2017-Aug-04 12:00N 30°04' W 093°21'0 0.0
2017-Aug-04 11:31N 30°04' W 093°21'0 0.0
2017-Aug-04 11:01N 30°04' W 093°21'0 0.0
2017-Aug-04 10:30N 30°04' W 093°21'0 0.0
2017-Aug-04 10:01N 30°04' W 093°21'0 0.0
2017-Aug-04 09:30N 30°04' W 093°21'0 0.0
2017-Aug-04 09:00N 30°04' W 093°21'0 0.0
2017-Aug-04 08:31N 30°04' W 093°21'0 0.0
2017-Aug-04 08:00N 30°04' W 093°21'0 0.0
2017-Aug-04 07:30N 30°04' W 093°21'0 0.0
2017-Aug-04 07:01N 30°04' W 093°21'0 0.0
2017-Aug-04 06:31N 30°04' W 093°21'0 0.0
2017-Aug-04 06:00N 30°04' W 093°21'0 0.0
2017-Aug-04 05:31N 30°04' W 093°21'0 0.0
2017-Aug-04 05:01N 30°04' W 093°21'0 0.0
2017-Aug-04 04:30N 30°04' W 093°21'0 0.0
2017-Aug-04 04:01N 30°04' W 093°21'0 0.0
2017-Aug-04 03:31N 30°04' W 093°21'0 0.0
2017-Aug-04 03:00N 30°04' W 093°21'0 0.0
2017-Aug-04 02:30N 30°04' W 093°21'0 0.0
2017-Aug-04 02:01N 30°04' W 093°21'0 0.0
2017-Aug-04 01:30N 30°04' W 093°21'0 0.0
2017-Aug-04 01:00N 30°04' W 093°21'0 0.0
2017-Aug-04 00:30N 30°04' W 093°21'0 0.0
2017-Aug-04 00:01N 30°04' W 093°21'0 0.0
2017-Aug-03 23:31N 30°04' W 093°21'0 0.0
2017-Aug-03 23:00N 30°04' W 093°21'0 0.0
2017-Aug-03 22:30N 30°04' W 093°21'0 0.0
2017-Aug-03 22:00N 30°04' W 093°21'0 0.0
2017-Aug-03 21:30N 30°04' W 093°21'0 0.0
2017-Aug-03 21:00N 30°04' W 093°21'  
Track history (hours):
 
Tides and Currents Weather Stations Pressure Air Temp Water Temp Dewpoint Dewpoint Depression Visibility Wind Speed Wind Dir Waves Ship Positions

Magnolia

Owner: Magnolia Marine Transport Co, Vicksburg, MS. More information available from US FCC via Universal Licensing System and Coast Guard Vessel Documentation Center.

Last reported at 2017-Aug-13 20:53 UTC. Time now 2017-Aug-20 15:27 UTC.
Position N 32°38' W 091°09'.

Length 215 m.

MMSI: 366936960.

Date/timePositionNaut miles runAvg speedWind from/ knotsBaromVisibWave heightAir tempDewpointWater temp
2017-Aug-13 20:53N 32°38' W 091°09'2 5.7
2017-Aug-13 20:31N 32°36' W 091°08'3 5.4
2017-Aug-13 20:01N 32°34' W 091°06'4 5.2
2017-Aug-13 19:20N 32°30' W 091°07'2 5.8
2017-Aug-13 19:01N 32°28' W 091°06'3 6.0
2017-Aug-13 18:31N 32°26' W 091°04'3 6.0
2017-Aug-13 18:01N 32°25' W 091°00'2 4.8
2017-Aug-13 17:31N 32°23' W 090°60'2 4.7
2017-Aug-13 17:01N 32°21' W 090°58'3 6.2
2017-Aug-13 16:31N 32°21' W 090°55'3 5.4
2017-Aug-13 16:01N 32°18' W 090°55'0 0.0
2017-Aug-13 15:30N 32°18' W 090°55'0 0.0
2017-Aug-13 15:01N 32°18' W 090°55'0 0.0
2017-Aug-13 14:31N 32°18' W 090°55'0 0.0
2017-Aug-13 14:01N 32°18' W 090°55'0 0.0
2017-Aug-13 13:31N 32°18' W 090°55'0 0.1
2017-Aug-13 13:01N 32°18' W 090°55'3 5.2
2017-Aug-13 12:31N 32°16' W 090°57'3 5.4
2017-Aug-13 12:01N 32°14' W 090°59'2 3.2
2017-Aug-13 11:31N 32°12' W 090°59'3 5.7
2017-Aug-13 11:01N 32°10' W 091°00'3 5.1
2017-Aug-13 10:30N 32°07' W 091°01'3 5.5
2017-Aug-13 10:01N 32°08' W 091°05'2 3.9
2017-Aug-13 09:31N 32°07' W 091°06'4 5.4
2017-Aug-13 08:42N 32°03' W 091°03'1 6.1
2017-Aug-13 08:31N 32°02' W 091°04'3 6.4
2017-Aug-13 08:01N 31°60' W 091°06'4 6.0
2017-Aug-13 07:20N 31°59' W 091°11'9 4.5
2017-Aug-13 05:20N 31°51' W 091°17'125 2.5
2017-Aug-11 02:58N 29°51' W 091°54'2 5.5
2017-Aug-11 02:31N 29°50' W 091°57'3 5.1
2017-Aug-11 02:00N 29°50' W 091°60'3 5.4
2017-Aug-11 01:31N 29°49' W 092°03'3 5.3
2017-Aug-11 01:01N 29°48' W 092°06'3 5.4
2017-Aug-11 00:31N 29°47' W 092°08'3 5.5
2017-Aug-11 00:01N 29°47' W 092°12'2 3.7
2017-Aug-10 23:31N 29°48' W 092°14'2 3.4
2017-Aug-10 23:01N 29°48' W 092°15'2 4.2
2017-Aug-10 22:30N 29°49' W 092°18'2 4.0
2017-Aug-10 21:57N 29°51' W 092°20'1 2.6
2017-Aug-10 21:30N 29°51' W 092°21'40 3.9
2017-Aug-10 11:21N 29°56' W 093°07'2 4.8
2017-Aug-10 11:01N 29°56' W 093°09'2 4.5
2017-Aug-10 10:31N 29°57' W 093°11'2 4.5
2017-Aug-10 10:01N 29°59' W 093°12'2 4.0
2017-Aug-10 09:31N 30°01' W 093°14'2 3.7
2017-Aug-10 09:01N 30°02' W 093°15'1 2.8
2017-Aug-10 08:31N 30°03' W 093°16'2 4.2
2017-Aug-10 08:01N 30°05' W 093°17'1 2.0
2017-Aug-10 07:31N 30°06' W 093°18'1 1.6
2017-Aug-10 07:01N 30°06' W 093°19'0 0.3
2017-Aug-10 06:30N 30°06' W 093°19'2 3.7
2017-Aug-10 06:01N 30°07' W 093°20'2 5.0
2017-Aug-10 05:31N 30°10' W 093°19'2 3.2
2017-Aug-10 05:01N 30°11' W 093°18'3 5.3
2017-Aug-10 04:31N 30°13' W 093°16'1 2.2
2017-Aug-10 04:00N 30°14' W 093°15'0 0.1
2017-Aug-10 03:31N 30°14' W 093°15'0 0.1
2017-Aug-10 03:01N 30°14' W 093°15'0 0.0
2017-Aug-10 02:31N 30°14' W 093°15'0 0.2
2017-Aug-10 02:00N 30°14' W 093°15'0 0.0
2017-Aug-10 01:30N 30°14' W 093°15'0 0.0
2017-Aug-10 01:01N 30°14' W 093°15'0 0.0
2017-Aug-10 00:31N 30°14' W 093°15'0 0.0
2017-Aug-10 00:01N 30°14' W 093°15'0 0.0
2017-Aug-09 23:31N 30°14' W 093°15'0 0.0
2017-Aug-09 23:01N 30°14' W 093°15'0 0.0
2017-Aug-09 22:31N 30°14' W 093°15'0 0.0
2017-Aug-09 22:00N 30°14' W 093°15'0 0.0
2017-Aug-09 21:31N 30°14' W 093°15'0 0.0
2017-Aug-09 21:00N 30°14' W 093°15'0 0.0
2017-Aug-09 20:31N 30°14' W 093°15'0 0.0
2017-Aug-09 20:01N 30°14' W 093°15'0 0.0
2017-Aug-09 19:31N 30°14' W 093°15'0 0.0
2017-Aug-09 19:01N 30°14' W 093°15'0 0.0
2017-Aug-09 18:31N 30°14' W 093°15'0 0.0
2017-Aug-09 18:01N 30°14' W 093°15'0 0.0
2017-Aug-09 17:31N 30°14' W 093°15'0 0.0
2017-Aug-09 17:00N 30°14' W 093°15'0 0.0
2017-Aug-09 16:31N 30°14' W 093°15'0 0.0
2017-Aug-09 16:01N 30°14' W 093°15'0 0.0
2017-Aug-09 15:31N 30°14' W 093°15'0 0.0
2017-Aug-09 15:00N 30°14' W 093°15'0 0.0
2017-Aug-09 14:31N 30°14' W 093°15'0 0.0
2017-Aug-09 14:01N 30°14' W 093°15'0 0.0
2017-Aug-09 13:31N 30°14' W 093°15'0 0.0
2017-Aug-09 13:00N 30°14' W 093°15'0 0.0
2017-Aug-09 12:30N 30°14' W 093°15'0 0.0
2017-Aug-09 12:01N 30°14' W 093°15'0 0.0
2017-Aug-09 11:29N 30°14' W 093°15'0 0.0
2017-Aug-09 11:01N 30°14' W 093°15'0 0.1
2017-Aug-09 10:31N 30°14' W 093°15'0 0.3
2017-Aug-09 10:01N 30°14' W 093°15'0 0.1
2017-Aug-09 09:31N 30°14' W 093°15'0 0.4
2017-Aug-09 09:00N 30°14' W 093°15'0 0.0
2017-Aug-09 08:29N 30°14' W 093°15'0 0.0
2017-Aug-09 08:01N 30°14' W 093°15'0 0.1
2017-Aug-09 07:30N 30°14' W 093°15'0 0.0
2017-Aug-09 07:01N 30°14' W 093°15'0 0.0
2017-Aug-09 06:30N 30°14' W 093°15'0 0.0
2017-Aug-09 06:01N 30°14' W 093°15'0 0.0
2017-Aug-09 05:31N 30°14' W 093°15'0 0.0
2017-Aug-09 05:01N 30°14' W 093°15'0 0.0
2017-Aug-09 04:30N 30°14' W 093°15'0 0.0
2017-Aug-09 04:01N 30°14' W 093°15'0 0.0
2017-Aug-09 03:31N 30°14' W 093°15'0 0.0
2017-Aug-09 03:00N 30°14' W 093°15'0 0.0
2017-Aug-09 02:31N 30°14' W 093°15'0 0.0
2017-Aug-09 02:01N 30°14' W 093°15'0 0.0
2017-Aug-09 01:31N 30°14' W 093°15'0 0.0
2017-Aug-09 01:00N 30°14' W 093°15'0 0.0
2017-Aug-09 00:31N 30°14' W 093°15'0 0.0
2017-Aug-09 00:01N 30°14' W 093°15'0 0.0
2017-Aug-08 23:31N 30°14' W 093°15'0 0.0
2017-Aug-08 23:00N 30°14' W 093°15'0 0.0
2017-Aug-08 22:31N 30°14' W 093°15'0 0.0
2017-Aug-08 22:01N 30°14' W 093°15'0 0.0
2017-Aug-08 21:31N 30°14' W 093°15'0 0.0
2017-Aug-08 21:01N 30°14' W 093°15'0 0.0
2017-Aug-08 20:30N 30°14' W 093°15'0 0.0
2017-Aug-08 20:01N 30°14' W 093°15'0 0.0
2017-Aug-08 19:31N 30°14' W 093°15'0 0.2
2017-Aug-08 19:01N 30°14' W 093°15'0 0.0
2017-Aug-08 18:30N 30°14' W 093°15'0 0.0
2017-Aug-08 18:00N 30°14' W 093°15'0 0.0
2017-Aug-08 17:30N 30°14' W 093°15'0 0.0
2017-Aug-08 17:01N 30°14' W 093°15'0 0.0
2017-Aug-08 16:30N 30°14' W 093°15'0 0.0
2017-Aug-08 16:01N 30°14' W 093°15'0 0.0
2017-Aug-08 15:31N 30°14' W 093°15'0 0.0
2017-Aug-08 15:00N 30°14' W 093°15'0 0.0
2017-Aug-08 14:31N 30°14' W 093°15'0 0.0
2017-Aug-08 14:01N 30°14' W 093°15'0 0.0
2017-Aug-08 13:31N 30°14' W 093°15'0 0.0
2017-Aug-08 13:01N 30°14' W 093°15'0 0.0
2017-Aug-08 12:30N 30°14' W 093°15'0 0.0
2017-Aug-08 12:01N 30°14' W 093°15'0 0.0
2017-Aug-08 11:31N 30°14' W 093°15'0 0.0
2017-Aug-08 11:01N 30°14' W 093°15'0 0.0
2017-Aug-08 10:31N 30°14' W 093°15'0 0.0
2017-Aug-08 10:01N 30°14' W 093°15'0 0.0
2017-Aug-08 09:30N 30°14' W 093°15'0 0.0
2017-Aug-08 09:01N 30°14' W 093°15'0 0.0
2017-Aug-08 08:31N 30°14' W 093°15'0 0.0
2017-Aug-08 08:01N 30°14' W 093°15'0 0.0
2017-Aug-08 07:31N 30°14' W 093°15'0 0.0
2017-Aug-08 07:01N 30°14' W 093°15'0 0.0
2017-Aug-08 06:31N 30°14' W 093°15'0 0.0
2017-Aug-08 06:00N 30°14' W 093°15'0 0.0
2017-Aug-08 05:30N 30°14' W 093°15'0 0.0
2017-Aug-08 05:00N 30°14' W 093°15'0 0.0
2017-Aug-08 04:31N 30°14' W 093°15'0 0.0
2017-Aug-08 04:01N 30°14' W 093°15'0 0.0
2017-Aug-08 03:31N 30°14' W 093°15'0 0.0
2017-Aug-08 03:01N 30°14' W 093°15'0 0.0
2017-Aug-08 02:31N 30°14' W 093°15'0 0.0
2017-Aug-08 02:01N 30°14' W 093°15'0 0.0
2017-Aug-08 01:30N 30°14' W 093°15'0 0.0
2017-Aug-08 01:01N 30°14' W 093°15'0 0.0
2017-Aug-08 00:31N 30°14' W 093°15'0 0.0
2017-Aug-08 00:01N 30°14' W 093°15'0 0.0
2017-Aug-07 23:31N 30°14' W 093°15'0 0.0
2017-Aug-07 23:00N 30°14' W 093°15'0 0.0
2017-Aug-07 22:31N 30°14' W 093°15'0 0.0
2017-Aug-07 22:00N 30°14' W 093°15'0 0.0
2017-Aug-07 21:30N 30°14' W 093°15'0 0.0
2017-Aug-07 21:00N 30°14' W 093°15'0 0.0
2017-Aug-07 20:31N 30°14' W 093°15'0 0.0
2017-Aug-07 20:01N 30°14' W 093°15'0 0.0
2017-Aug-07 19:31N 30°14' W 093°15'0 0.0
2017-Aug-07 19:01N 30°14' W 093°15'0 0.0
2017-Aug-07 18:30N 30°14' W 093°15'0 0.0
2017-Aug-07 18:01N 30°14' W 093°15'0 0.0
2017-Aug-07 17:30N 30°14' W 093°15'0 0.4
2017-Aug-07 17:00N 30°14' W 093°16'1 1.8
2017-Aug-07 16:30N 30°13' W 093°16'1 1.4
2017-Aug-07 16:01N 30°13' W 093°16'3 6.0
2017-Aug-07 15:31N 30°11' W 093°19'3 6.4
2017-Aug-07 15:01N 30°08' W 093°20'3 5.9
2017-Aug-07 14:31N 30°05' W 093°20'1 2.0
2017-Aug-07 14:01N 30°04' W 093°21'0 0.0
2017-Aug-07 13:31N 30°04' W 093°21'0 0.1
2017-Aug-07 13:01N 30°04' W 093°21'0 0.0
2017-Aug-07 12:31N 30°04' W 093°21'0 0.0
2017-Aug-07 12:01N 30°04' W 093°21'0 0.0
2017-Aug-07 11:31N 30°04' W 093°21'0 0.0
2017-Aug-07 11:01N 30°04' W 093°21'0 0.0
2017-Aug-07 10:31N 30°04' W 093°21'0 0.0
2017-Aug-07 10:00N 30°04' W 093°21'0 0.0
2017-Aug-07 09:31N 30°04' W 093°21'0 0.0
2017-Aug-07 09:01N 30°04' W 093°21'0 0.0
2017-Aug-07 08:31N 30°04' W 093°21'0 0.0
2017-Aug-07 08:01N 30°04' W 093°21'0 0.0
2017-Aug-07 07:31N 30°04' W 093°21'0 0.0
2017-Aug-07 07:00N 30°04' W 093°21'0 0.0
2017-Aug-07 06:30N 30°04' W 093°21'0 0.0
2017-Aug-07 06:01N 30°04' W 093°21'0 0.0
2017-Aug-07 05:31N 30°04' W 093°21'0 0.0
2017-Aug-07 05:01N 30°04' W 093°21'0 0.0
2017-Aug-07 04:30N 30°04' W 093°21'0 0.0
2017-Aug-07 04:01N 30°04' W 093°21'0 0.0
2017-Aug-07 03:31N 30°04' W 093°21'0 0.0
2017-Aug-07 03:01N 30°04' W 093°21'0 0.0
2017-Aug-07 02:31N 30°04' W 093°21'0 0.0
2017-Aug-07 02:00N 30°04' W 093°21'0 0.0
2017-Aug-07 01:31N 30°04' W 093°21'0 0.0
2017-Aug-07 01:00N 30°04' W 093°21'0 0.0
2017-Aug-07 00:31N 30°04' W 093°21'0 0.0
2017-Aug-07 00:01N 30°04' W 093°21'0 0.0
2017-Aug-06 23:31N 30°04' W 093°21'0 0.0
2017-Aug-06 23:01N 30°04' W 093°21'0 0.0
2017-Aug-06 22:31N 30°04' W 093°21'0 0.0
2017-Aug-06 22:01N 30°04' W 093°21'0 0.0
2017-Aug-06 21:31N 30°04' W 093°21'0 0.0
2017-Aug-06 21:01N 30°04' W 093°21'0 0.0
2017-Aug-06 20:31N 30°04' W 093°21'0 0.0
2017-Aug-06 20:01N 30°04' W 093°21'0 0.0
2017-Aug-06 19:30N 30°04' W 093°21'0 0.0
2017-Aug-06 19:01N 30°04' W 093°21'0 0.0
2017-Aug-06 18:31N 30°04' W 093°21'0 0.0
2017-Aug-06 18:01N 30°04' W 093°21'0 0.0
2017-Aug-06 17:30N 30°04' W 093°21'0 0.0
2017-Aug-06 17:00N 30°04' W 093°21'0 0.0
2017-Aug-06 16:31N 30°04' W 093°21'0 0.0
2017-Aug-06 16:01N 30°04' W 093°21'0 0.0
2017-Aug-06 15:31N 30°04' W 093°21'0 0.0
2017-Aug-06 15:01N 30°04' W 093°21'0 0.0
2017-Aug-06 14:31N 30°04' W 093°21'0 0.0
2017-Aug-06 14:01N 30°04' W 093°21'0 0.0
2017-Aug-06 13:31N 30°04' W 093°21'0 0.0
2017-Aug-06 13:01N 30°04' W 093°21'0 0.0
2017-Aug-06 12:31N 30°04' W 093°21'0 0.0
2017-Aug-06 12:01N 30°04' W 093°21'0 0.0
2017-Aug-06 11:31N 30°04' W 093°21'0 0.0
2017-Aug-06 11:01N 30°04' W 093°21'0 0.0
2017-Aug-06 10:31N 30°04' W 093°21'0 0.0
2017-Aug-06 10:01N 30°04' W 093°21'0 0.0
2017-Aug-06 09:31N 30°04' W 093°21'0 0.0
2017-Aug-06 09:01N 30°04' W 093°21'0 0.0
2017-Aug-06 08:31N 30°04' W 093°21'0 0.0
2017-Aug-06 08:01N 30°04' W 093°21'0 0.0
2017-Aug-06 07:31N 30°04' W 093°21'0 0.0
2017-Aug-06 07:01N 30°04' W 093°21'0 0.0
2017-Aug-06 06:31N 30°04' W 093°21'0 0.0
2017-Aug-06 06:00N 30°04' W 093°21'0 0.1
2017-Aug-06 05:31N 30°04' W 093°21'0 0.0
2017-Aug-06 05:01N 30°04' W 093°21'0 0.0
2017-Aug-06 04:31N 30°04' W 093°21'0 0.0
2017-Aug-06 04:01N 30°04' W 093°21'0 0.0
2017-Aug-06 03:31N 30°04' W 093°21'0 0.0
2017-Aug-06 03:01N 30°04' W 093°21'0 0.0
2017-Aug-06 02:31N 30°04' W 093°21'0 0.0
2017-Aug-06 02:01N 30°04' W 093°21'0 0.0
2017-Aug-06 01:31N 30°04' W 093°21'0 0.0
2017-Aug-06 01:01N 30°04' W 093°21'0 0.0
2017-Aug-06 00:30N 30°04' W 093°21'0 0.0
2017-Aug-06 00:01N 30°04' W 093°21'0 0.0
2017-Aug-05 23:30N 30°04' W 093°21'0 0.0
2017-Aug-05 23:00N 30°04' W 093°21'0 0.0
2017-Aug-05 22:31N 30°04' W 093°21'0 0.0
2017-Aug-05 22:00N 30°04' W 093°21'0 0.0
2017-Aug-05 21:31N 30°04' W 093°21'0 0.0
2017-Aug-05 21:01N 30°04' W 093°21'0 0.0
2017-Aug-05 20:31N 30°04' W 093°21'0 0.0
2017-Aug-05 20:00N 30°04' W 093°21'0 0.0
2017-Aug-05 19:30N 30°04' W 093°21'0 0.0
2017-Aug-05 19:01N 30°04' W 093°21'0 0.0
2017-Aug-05 18:31N 30°04' W 093°21'0 0.0
2017-Aug-05 18:01N 30°04' W 093°21'0 0.0
2017-Aug-05 17:30N 30°04' W 093°21'0 0.0
2017-Aug-05 17:01N 30°04' W 093°21'0 0.0
2017-Aug-05 16:31N 30°04' W 093°21'0 0.0
2017-Aug-05 16:01N 30°04' W 093°21'0 0.0
2017-Aug-05 15:31N 30°04' W 093°21'0 0.0
2017-Aug-05 15:01N 30°04' W 093°21'0 0.0
2017-Aug-05 14:31N 30°04' W 093°21'0 0.0
2017-Aug-05 14:01N 30°04' W 093°21'0 0.0
2017-Aug-05 13:31N 30°04' W 093°21'0 0.0
2017-Aug-05 13:00N 30°04' W 093°21'0 0.0
2017-Aug-05 12:31N 30°04' W 093°21'0 0.0
2017-Aug-05 12:01N 30°04' W 093°21'0 0.0
2017-Aug-05 11:31N 30°04' W 093°21'0 0.0
2017-Aug-05 11:01N 30°04' W 093°21'0 0.0
2017-Aug-05 10:31N 30°04' W 093°21'0 0.0
2017-Aug-05 10:01N 30°04' W 093°21'0 0.0
2017-Aug-05 09:31N 30°04' W 093°21'0 0.0
2017-Aug-05 09:00N 30°04' W 093°21'0 0.0
2017-Aug-05 08:30N 30°04' W 093°21'0 0.0
2017-Aug-05 08:00N 30°04' W 093°21'0 0.0
2017-Aug-05 07:30N 30°04' W 093°21'0 0.0
2017-Aug-05 07:01N 30°04' W 093°21'0 0.0
2017-Aug-05 06:30N 30°04' W 093°21'0 0.0
2017-Aug-05 06:00N 30°04' W 093°21'0 0.0
2017-Aug-05 05:30N 30°04' W 093°21'0 0.0
2017-Aug-05 05:01N 30°04' W 093°21'0 0.0
2017-Aug-05 04:31N 30°04' W 093°21'0 0.0
2017-Aug-05 04:00N 30°04' W 093°21'0 0.0
2017-Aug-05 03:30N 30°04' W 093°21'0 0.0
2017-Aug-05 03:01N 30°04' W 093°21'0 0.0
2017-Aug-05 02:31N 30°04' W 093°21'0 0.0
2017-Aug-05 02:00N 30°04' W 093°21'0 0.0
2017-Aug-05 01:30N 30°04' W 093°21'0 0.0
2017-Aug-05 01:00N 30°04' W 093°21'0 0.0
2017-Aug-05 00:30N 30°04' W 093°21'0 0.0
2017-Aug-05 00:01N 30°04' W 093°21'0 0.0
2017-Aug-04 23:30N 30°04' W 093°21'0 0.0
2017-Aug-04 23:01N 30°04' W 093°21'0 0.0
2017-Aug-04 22:31N 30°04' W 093°21'0 0.0
2017-Aug-04 22:00N 30°04' W 093°21'0 0.0
2017-Aug-04 21:30N 30°04' W 093°21'0 0.0
2017-Aug-04 21:01N 30°04' W 093°21'0 0.0
2017-Aug-04 20:30N 30°04' W 093°21'0 0.0
2017-Aug-04 20:00N 30°04' W 093°21'0 0.0
2017-Aug-04 19:31N 30°04' W 093°21'0 0.0
2017-Aug-04 19:01N 30°04' W 093°21'0 0.0
2017-Aug-04 18:30N 30°04' W 093°21'0 0.0
2017-Aug-04 18:00N 30°04' W 093°21'0 0.0
2017-Aug-04 17:31N 30°04' W 093°21'0 0.0
2017-Aug-04 17:00N 30°04' W 093°21'0 0.0
2017-Aug-04 16:30N 30°04' W 093°21'0 0.0
2017-Aug-04 16:01N 30°04' W 093°21'0 0.0
2017-Aug-04 15:30N 30°04' W 093°21'0 0.0
2017-Aug-04 15:01N 30°04' W 093°21'0 0.0
2017-Aug-04 14:00N 30°04' W 093°21'0 0.0
2017-Aug-04 13:31N 30°04' W 093°21'0 0.0
2017-Aug-04 13:00N 30°04' W 093°21'0 0.0
2017-Aug-04 12:30N 30°04' W 093°21'0 0.0
2017-Aug-04 12:00N 30°04' W 093°21'0 0.0
2017-Aug-04 11:31N 30°04' W 093°21'0 0.0
2017-Aug-04 11:01N 30°04' W 093°21'0 0.0
2017-Aug-04 10:30N 30°04' W 093°21'0 0.0
2017-Aug-04 10:01N 30°04' W 093°21'0 0.0
2017-Aug-04 09:30N 30°04' W 093°21'0 0.0
2017-Aug-04 09:00N 30°04' W 093°21'0 0.0
2017-Aug-04 08:31N 30°04' W 093°21'0 0.0
2017-Aug-04 08:00N 30°04' W 093°21'0 0.0
2017-Aug-04 07:30N 30°04' W 093°21'0 0.0
2017-Aug-04 07:01N 30°04' W 093°21'0 0.0
2017-Aug-04 06:31N 30°04' W 093°21'0 0.0
2017-Aug-04 06:00N 30°04' W 093°21'0 0.0
2017-Aug-04 05:31N 30°04' W 093°21'0 0.0
2017-Aug-04 05:01N 30°04' W 093°21'0 0.0
2017-Aug-04 04:30N 30°04' W 093°21'0 0.0
2017-Aug-04 04:01N 30°04' W 093°21'0 0.0
2017-Aug-04 03:31N 30°04' W 093°21'0 0.0
2017-Aug-04 03:00N 30°04' W 093°21'0 0.0
2017-Aug-04 02:30N 30°04' W 093°21'0 0.0
2017-Aug-04 02:01N 30°04' W 093°21'0 0.0
2017-Aug-04 01:30N 30°04' W 093°21'0 0.0
2017-Aug-04 01:00N 30°04' W 093°21'0 0.0
2017-Aug-04 00:30N 30°04' W 093°21'0 0.0
2017-Aug-04 00:01N 30°04' W 093°21'0 0.0
2017-Aug-03 23:31N 30°04' W 093°21'0 0.0
2017-Aug-03 23:00N 30°04' W 093°21'0 0.0
2017-Aug-03 22:30N 30°04' W 093°21'0 0.0
2017-Aug-03 22:00N 30°04' W 093°21'0 0.0
2017-Aug-03 21:30N 30°04' W 093°21'0 0.0
2017-Aug-03 21:00N 30°04' W 093°21'  

Dump ship's entire track history